Terminal Aerodrome Forecast
Issued by NWS

Home | Current Version | Previous Version | Text Only | Print | Product List | Glossary On
Versions: 1 2 3 4 5 6 7 8 9 10 11 12 13 14
000
FTUS42 TJSJ 291131
TAFNCM
TAF
TNCM 291131Z 2912/3012 10009KT P6SM FEW020 SCT035
     FM291300 08013KT P6SM SCT020
     FM292300 07009KT P6SM SCT022 SCT040=

USA.gov is the U.S. government's official web portal to all federal, state and local government web resources and services.